sensor_id;sensor_type;location;lat;lon;timestamp;P1;durP1;ratioP1;P2;durP2;ratioP2
22415;SDS011;12204;50.600;4.608;2022-07-29T00:01:56;4.22;;;1.10;;
22415;SDS011;12204;50.600;4.608;2022-07-29T00:07:01;3.47;;;1.00;;
22415;SDS011;12204;50.600;4.608;2022-07-29T00:12:05;3.90;;;1.02;;
22415;SDS011;12204;50.600;4.608;2022-07-29T00:17:10;3.28;;;0.90;;
22415;SDS011;12204;50.600;4.608;2022-07-29T00:22:20;3.15;;;0.73;;
22415;SDS011;12204;50.600;4.608;2022-07-29T00:27:24;4.60;;;0.90;;
22415;SDS011;12204;50.600;4.608;2022-07-29T00:32:28;4.82;;;0.90;;
22415;SDS011;12204;50.600;4.608;2022-07-29T00:37:33;3.78;;;0.90;;
22415;SDS011;12204;50.600;4.608;2022-07-29T00:42:43;1.88;;;0.90;;
22415;SDS011;12204;50.600;4.608;2022-07-29T00:47:48;3.38;;;0.90;;
22415;SDS011;12204;50.600;4.608;2022-07-29T00:52:54;5.57;;;0.98;;
22415;SDS011;12204;50.600;4.608;2022-07-29T00:57:58;2.80;;;0.95;;
22415;SDS011;12204;50.600;4.608;2022-07-29T01:03:02;3.83;;;0.90;;
22415;SDS011;12204;50.600;4.608;2022-07-29T01:08:07;2.40;;;0.80;;
22415;SDS011;12204;50.600;4.608;2022-07-29T01:18:18;4.50;;;0.90;;
22415;SDS011;12204;50.600;4.608;2022-07-29T01:23:48;3.47;;;0.80;;
22415;SDS011;12204;50.600;4.608;2022-07-29T01:29:14;2.00;;;0.77;;
22415;SDS011;12204;50.600;4.608;2022-07-29T01:34:39;3.60;;;0.90;;
22415;SDS011;12204;50.600;4.608;2022-07-29T01:39:52;2.58;;;0.80;;
22415;SDS011;12204;50.600;4.608;2022-07-29T01:45:02;2.65;;;0.90;;
22415;SDS011;12204;50.600;4.608;2022-07-29T01:50:16;2.75;;;0.93;;
22415;SDS011;12204;50.600;4.608;2022-07-29T01:55:22;8.05;;;1.00;;
22415;SDS011;12204;50.600;4.608;2022-07-29T02:00:36;6.10;;;1.10;;
22415;SDS011;12204;50.600;4.608;2022-07-29T02:05:44;2.58;;;0.80;;
22415;SDS011;12204;50.600;4.608;2022-07-29T02:10:51;7.57;;;1.00;;
22415;SDS011;12204;50.600;4.608;2022-07-29T02:15:57;4.68;;;1.00;;
22415;SDS011;12204;50.600;4.608;2022-07-29T02:26:15;3.45;;;0.70;;
22415;SDS011;12204;50.600;4.608;2022-07-29T02:31:24;3.78;;;0.80;;
22415;SDS011;12204;50.600;4.608;2022-07-29T02:36:34;6.20;;;0.90;;
22415;SDS011;12204;50.600;4.608;2022-07-29T02:41:40;6.47;;;0.90;;
22415;SDS011;12204;50.600;4.608;2022-07-29T02:46:49;3.33;;;0.80;;
22415;SDS011;12204;50.600;4.608;2022-07-29T02:52:16;3.53;;;0.88;;
22415;SDS011;12204;50.600;4.608;2022-07-29T02:57:29;2.45;;;0.80;;
22415;SDS011;12204;50.600;4.608;2022-07-29T03:02:58;4.78;;;0.90;;
22415;SDS011;12204;50.600;4.608;2022-07-29T03:08:05;2.75;;;0.80;;
22415;SDS011;12204;50.600;4.608;2022-07-29T03:13:13;3.25;;;0.85;;
22415;SDS011;12204;50.600;4.608;2022-07-29T03:18:20;3.58;;;0.90;;
22415;SDS011;12204;50.600;4.608;2022-07-29T03:23:24;4.75;;;0.80;;
22415;SDS011;12204;50.600;4.608;2022-07-29T03:28:35;3.92;;;0.88;;
22415;SDS011;12204;50.600;4.608;2022-07-29T03:33:41;3.47;;;0.80;;
22415;SDS011;12204;50.600;4.608;2022-07-29T03:38:45;2.90;;;0.90;;
22415;SDS011;12204;50.600;4.608;2022-07-29T03:43:50;3.88;;;0.90;;
22415;SDS011;12204;50.600;4.608;2022-07-29T03:48:58;2.42;;;0.70;;
22415;SDS011;12204;50.600;4.608;2022-07-29T03:54:04;1.48;;;0.70;;
22415;SDS011;12204;50.600;4.608;2022-07-29T03:59:10;4.37;;;0.80;;
22415;SDS011;12204;50.600;4.608;2022-07-29T04:04:17;3.83;;;0.73;;
22415;SDS011;12204;50.600;4.608;2022-07-29T04:09:21;3.85;;;0.80;;
22415;SDS011;12204;50.600;4.608;2022-07-29T04:14:25;2.33;;;0.80;;
22415;SDS011;12204;50.600;4.608;2022-07-29T04:19:30;3.10;;;0.90;;
22415;SDS011;12204;50.600;4.608;2022-07-29T04:24:34;4.57;;;1.00;;
22415;SDS011;12204;50.600;4.608;2022-07-29T04:29:38;2.25;;;0.70;;
22415;SDS011;12204;50.600;4.608;2022-07-29T04:34:59;4.30;;;0.90;;
22415;SDS011;12204;50.600;4.608;2022-07-29T04:40:03;2.30;;;0.98;;
22415;SDS011;12204;50.600;4.608;2022-07-29T04:45:09;3.60;;;0.85;;
22415;SDS011;12204;50.600;4.608;2022-07-29T04:50:15;1.25;;;0.75;;
22415;SDS011;12204;50.600;4.608;2022-07-29T04:55:19;4.50;;;0.90;;
22415;SDS011;12204;50.600;4.608;2022-07-29T05:00:23;3.40;;;1.00;;
22415;SDS011;12204;50.600;4.608;2022-07-29T05:05:35;6.30;;;1.10;;
22415;SDS011;12204;50.600;4.608;2022-07-29T05:10:38;3.65;;;1.00;;
22415;SDS011;12204;50.600;4.608;2022-07-29T05:15:42;3.05;;;0.90;;
22415;SDS011;12204;50.600;4.608;2022-07-29T05:20:47;4.20;;;1.08;;
22415;SDS011;12204;50.600;4.608;2022-07-29T05:25:51;4.22;;;1.00;;
22415;SDS011;12204;50.600;4.608;2022-07-29T05:30:56;4.82;;;1.15;;
22415;SDS011;12204;50.600;4.608;2022-07-29T05:36:01;3.80;;;1.20;;
22415;SDS011;12204;50.600;4.608;2022-07-29T05:41:07;4.28;;;1.27;;
22415;SDS011;12204;50.600;4.608;2022-07-29T05:46:10;5.80;;;1.20;;
22415;SDS011;12204;50.600;4.608;2022-07-29T05:51:16;5.57;;;1.10;;
22415;SDS011;12204;50.600;4.608;2022-07-29T05:56:20;4.57;;;1.10;;
22415;SDS011;12204;50.600;4.608;2022-07-29T06:01:24;3.85;;;1.10;;
22415;SDS011;12204;50.600;4.608;2022-07-29T06:06:30;4.75;;;1.20;;
22415;SDS011;12204;50.600;4.608;2022-07-29T06:11:33;4.88;;;1.30;;
22415;SDS011;12204;50.600;4.608;2022-07-29T06:16:37;5.60;;;1.17;;
22415;SDS011;12204;50.600;4.608;2022-07-29T06:21:42;5.35;;;1.20;;
22415;SDS011;12204;50.600;4.608;2022-07-29T06:26:46;3.72;;;1.20;;
22415;SDS011;12204;50.600;4.608;2022-07-29T06:31:50;9.48;;;1.40;;
22415;SDS011;12204;50.600;4.608;2022-07-29T06:36:55;4.78;;;1.13;;
22415;SDS011;12204;50.600;4.608;2022-07-29T06:41:59;7.40;;;1.23;;
22415;SDS011;12204;50.600;4.608;2022-07-29T06:47:04;8.38;;;1.20;;
22415;SDS011;12204;50.600;4.608;2022-07-29T06:52:09;6.28;;;1.30;;
22415;SDS011;12204;50.600;4.608;2022-07-29T06:57:12;7.43;;;1.50;;
22415;SDS011;12204;50.600;4.608;2022-07-29T07:02:16;7.10;;;1.45;;
22415;SDS011;12204;50.600;4.608;2022-07-29T07:07:21;15.85;;;1.60;;
22415;SDS011;12204;50.600;4.608;2022-07-29T07:12:24;13.07;;;1.60;;
22415;SDS011;12204;50.600;4.608;2022-07-29T07:17:28;9.60;;;1.42;;
22415;SDS011;12204;50.600;4.608;2022-07-29T07:22:33;7.70;;;1.50;;
22415;SDS011;12204;50.600;4.608;2022-07-29T07:27:39;7.50;;;1.50;;
22415;SDS011;12204;50.600;4.608;2022-07-29T07:32:43;6.60;;;1.65;;
22415;SDS011;12204;50.600;4.608;2022-07-29T07:37:48;6.95;;;1.60;;
22415;SDS011;12204;50.600;4.608;2022-07-29T07:42:52;6.03;;;1.35;;
22415;SDS011;12204;50.600;4.608;2022-07-29T07:47:56;8.02;;;1.60;;
22415;SDS011;12204;50.600;4.608;2022-07-29T07:53:01;6.55;;;1.60;;
22415;SDS011;12204;50.600;4.608;2022-07-29T07:58:05;6.85;;;1.60;;
22415;SDS011;12204;50.600;4.608;2022-07-29T08:03:09;6.97;;;1.90;;
22415;SDS011;12204;50.600;4.608;2022-07-29T08:08:19;22.13;;;4.18;;
22415;SDS011;12204;50.600;4.608;2022-07-29T08:13:24;19.02;;;3.80;;
22415;SDS011;12204;50.600;4.608;2022-07-29T08:18:31;17.42;;;3.22;;
22415;SDS011;12204;50.600;4.608;2022-07-29T08:23:36;14.35;;;3.30;;
22415;SDS011;12204;50.600;4.608;2022-07-29T08:28:49;17.65;;;2.90;;
22415;SDS011;12204;50.600;4.608;2022-07-29T08:33:53;14.77;;;2.88;;
22415;SDS011;12204;50.600;4.608;2022-07-29T08:39:00;12.10;;;2.97;;
22415;SDS011;12204;50.600;4.608;2022-07-29T08:44:05;12.00;;;2.80;;
22415;SDS011;12204;50.600;4.608;2022-07-29T08:49:09;11.18;;;2.85;;
22415;SDS011;12204;50.600;4.608;2022-07-29T08:54:16;41.45;;;4.60;;
22415;SDS011;12204;50.600;4.608;2022-07-29T09:04:27;19.95;;;3.00;;
22415;SDS011;12204;50.600;4.608;2022-07-29T09:09:37;20.00;;;2.80;;
22415;SDS011;12204;50.600;4.608;2022-07-29T09:14:41;15.45;;;2.70;;
22415;SDS011;12204;50.600;4.608;2022-07-29T09:19:45;14.32;;;2.60;;
22415;SDS011;12204;50.600;4.608;2022-07-29T09:24:50;9.88;;;2.10;;
22415;SDS011;12204;50.600;4.608;2022-07-29T09:29:56;11.20;;;1.90;;
22415;SDS011;12204;50.600;4.608;2022-07-29T09:35:18;5.65;;;2.00;;
22415;SDS011;12204;50.600;4.608;2022-07-29T09:40:27;8.10;;;1.73;;
22415;SDS011;12204;50.600;4.608;2022-07-29T09:45:31;7.38;;;1.70;;
22415;SDS011;12204;50.600;4.608;2022-07-29T09:50:37;7.30;;;1.58;;
22415;SDS011;12204;50.600;4.608;2022-07-29T09:55:47;7.38;;;1.40;;
22415;SDS011;12204;50.600;4.608;2022-07-29T10:00:53;4.20;;;1.40;;
22415;SDS011;12204;50.600;4.608;2022-07-29T10:06:06;4.30;;;1.30;;
22415;SDS011;12204;50.600;4.608;2022-07-29T10:11:13;7.28;;;1.60;;
22415;SDS011;12204;50.600;4.608;2022-07-29T10:16:19;5.07;;;1.50;;
22415;SDS011;12204;50.600;4.608;2022-07-29T10:21:23;4.75;;;1.25;;
22415;SDS011;12204;50.600;4.608;2022-07-29T10:26:38;5.55;;;1.58;;
22415;SDS011;12204;50.600;4.608;2022-07-29T10:31:43;8.40;;;1.55;;
22415;SDS011;12204;50.600;4.608;2022-07-29T10:37:03;4.57;;;1.30;;
22415;SDS011;12204;50.600;4.608;2022-07-29T10:42:22;4.72;;;1.60;;
22415;SDS011;12204;50.600;4.608;2022-07-29T10:47:34;4.70;;;1.50;;
22415;SDS011;12204;50.600;4.608;2022-07-29T10:52:54;4.68;;;1.40;;
22415;SDS011;12204;50.600;4.608;2022-07-29T10:58:12;3.75;;;1.30;;
22415;SDS011;12204;50.600;4.608;2022-07-29T11:03:42;6.93;;;1.60;;
22415;SDS011;12204;50.600;4.608;2022-07-29T11:25:46;3.70;;;1.50;;
22415;SDS011;12204;50.600;4.608;2022-07-29T11:31:38;4.85;;;1.50;;
22415;SDS011;12204;50.600;4.608;2022-07-29T11:42:55;4.35;;;1.60;;
22415;SDS011;12204;50.600;4.608;2022-07-29T11:59:46;5.30;;;1.58;;
22415;SDS011;12204;50.600;4.608;2022-07-29T12:04:51;6.03;;;1.50;;
22415;SDS011;12204;50.600;4.608;2022-07-29T12:09:57;6.90;;;1.80;;
22415;SDS011;12204;50.600;4.608;2022-07-29T12:15:12;4.13;;;1.50;;
22415;SDS011;12204;50.600;4.608;2022-07-29T12:20:24;4.00;;;1.58;;
22415;SDS011;12204;50.600;4.608;2022-07-29T12:25:32;4.47;;;1.67;;
22415;SDS011;12204;50.600;4.608;2022-07-29T12:30:40;4.85;;;1.70;;
22415;SDS011;12204;50.600;4.608;2022-07-29T12:35:53;6.78;;;3.25;;
22415;SDS011;12204;50.600;4.608;2022-07-29T12:41:12;8.18;;;2.92;;
22415;SDS011;12204;50.600;4.608;2022-07-29T12:46:17;5.80;;;2.50;;
22415;SDS011;12204;50.600;4.608;2022-07-29T12:51:27;5.68;;;2.40;;
22415;SDS011;12204;50.600;4.608;2022-07-29T12:56:32;5.38;;;2.13;;
22415;SDS011;12204;50.600;4.608;2022-07-29T13:01:48;7.68;;;2.17;;
22415;SDS011;12204;50.600;4.608;2022-07-29T13:06:59;5.93;;;2.20;;
22415;SDS011;12204;50.600;4.608;2022-07-29T13:12:07;9.05;;;2.17;;
22415;SDS011;12204;50.600;4.608;2022-07-29T13:17:14;5.00;;;1.90;;
22415;SDS011;12204;50.600;4.608;2022-07-29T13:22:21;5.28;;;1.80;;
22415;SDS011;12204;50.600;4.608;2022-07-29T13:27:27;8.15;;;2.10;;
22415;SDS011;12204;50.600;4.608;2022-07-29T13:32:35;13.30;;;2.03;;
22415;SDS011;12204;50.600;4.608;2022-07-29T13:37:39;7.97;;;2.03;;
22415;SDS011;12204;50.600;4.608;2022-07-29T13:42:43;9.00;;;2.00;;
22415;SDS011;12204;50.600;4.608;2022-07-29T13:47:48;11.82;;;1.95;;
22415;SDS011;12204;50.600;4.608;2022-07-29T13:52:52;10.38;;;1.88;;
22415;SDS011;12204;50.600;4.608;2022-07-29T13:57:55;8.30;;;2.30;;
22415;SDS011;12204;50.600;4.608;2022-07-29T14:03:00;7.97;;;2.05;;
22415;SDS011;12204;50.600;4.608;2022-07-29T14:08:05;6.28;;;1.70;;
22415;SDS011;12204;50.600;4.608;2022-07-29T14:13:08;10.32;;;1.92;;
22415;SDS011;12204;50.600;4.608;2022-07-29T14:18:27;10.90;;;1.80;;
22415;SDS011;12204;50.600;4.608;2022-07-29T14:23:31;6.35;;;1.70;;
22415;SDS011;12204;50.600;4.608;2022-07-29T14:28:34;6.35;;;1.95;;
22415;SDS011;12204;50.600;4.608;2022-07-29T14:33:43;6.10;;;2.00;;
22415;SDS011;12204;50.600;4.608;2022-07-29T14:38:49;5.95;;;2.00;;
22415;SDS011;12204;50.600;4.608;2022-07-29T14:43:53;7.65;;;2.28;;
22415;SDS011;12204;50.600;4.608;2022-07-29T14:48:58;5.18;;;2.22;;
22415;SDS011;12204;50.600;4.608;2022-07-29T14:54:02;7.32;;;2.20;;
22415;SDS011;12204;50.600;4.608;2022-07-29T14:59:06;6.20;;;2.20;;
22415;SDS011;12204;50.600;4.608;2022-07-29T15:04:11;8.32;;;2.35;;
22415;SDS011;12204;50.600;4.608;2022-07-29T15:09:14;5.82;;;1.95;;
22415;SDS011;12204;50.600;4.608;2022-07-29T15:14:18;5.30;;;2.00;;
22415;SDS011;12204;50.600;4.608;2022-07-29T15:19:23;6.50;;;1.80;;
22415;SDS011;12204;50.600;4.608;2022-07-29T15:24:27;7.70;;;1.92;;
22415;SDS011;12204;50.600;4.608;2022-07-29T15:29:30;4.85;;;1.67;;
22415;SDS011;12204;50.600;4.608;2022-07-29T15:34:36;5.95;;;1.77;;
22415;SDS011;12204;50.600;4.608;2022-07-29T15:39:41;4.72;;;1.65;;
22415;SDS011;12204;50.600;4.608;2022-07-29T15:44:45;6.97;;;1.63;;
22415;SDS011;12204;50.600;4.608;2022-07-29T15:49:50;4.95;;;1.80;;
22415;SDS011;12204;50.600;4.608;2022-07-29T15:54:54;5.40;;;1.45;;
22415;SDS011;12204;50.600;4.608;2022-07-29T15:59:59;6.35;;;1.67;;
22415;SDS011;12204;50.600;4.608;2022-07-29T16:05:09;5.07;;;1.80;;
22415;SDS011;12204;50.600;4.608;2022-07-29T16:10:13;6.28;;;1.70;;
22415;SDS011;12204;50.600;4.608;2022-07-29T16:15:17;4.25;;;1.30;;
22415;SDS011;12204;50.600;4.608;2022-07-29T16:20:22;7.22;;;1.40;;
22415;SDS011;12204;50.600;4.608;2022-07-29T16:25:27;4.05;;;1.30;;
22415;SDS011;12204;50.600;4.608;2022-07-29T16:30:51;3.13;;;1.23;;
22415;SDS011;12204;50.600;4.608;2022-07-29T16:35:56;4.88;;;1.50;;
22415;SDS011;12204;50.600;4.608;2022-07-29T16:41:00;4.38;;;1.40;;
22415;SDS011;12204;50.600;4.608;2022-07-29T16:46:03;4.75;;;1.33;;
22415;SDS011;12204;50.600;4.608;2022-07-29T16:51:14;5.05;;;1.42;;
22415;SDS011;12204;50.600;4.608;2022-07-29T16:56:18;4.47;;;1.23;;
22415;SDS011;12204;50.600;4.608;2022-07-29T17:01:22;4.32;;;1.27;;
22415;SDS011;12204;50.600;4.608;2022-07-29T17:06:27;4.68;;;1.20;;
22415;SDS011;12204;50.600;4.608;2022-07-29T17:11:31;7.70;;;1.40;;
22415;SDS011;12204;50.600;4.608;2022-07-29T17:16:55;8.10;;;1.40;;
22415;SDS011;12204;50.600;4.608;2022-07-29T17:22:05;6.32;;;1.35;;
22415;SDS011;12204;50.600;4.608;2022-07-29T17:27:19;8.38;;;1.50;;
22415;SDS011;12204;50.600;4.608;2022-07-29T17:32:22;5.40;;;1.30;;
22415;SDS011;12204;50.600;4.608;2022-07-29T17:37:28;5.30;;;1.42;;
22415;SDS011;12204;50.600;4.608;2022-07-29T17:42:31;4.13;;;1.30;;
22415;SDS011;12204;50.600;4.608;2022-07-29T17:47:35;5.18;;;1.50;;
22415;SDS011;12204;50.600;4.608;2022-07-29T17:52:40;4.93;;;1.40;;
22415;SDS011;12204;50.600;4.608;2022-07-29T17:57:44;4.07;;;1.50;;
22415;SDS011;12204;50.600;4.608;2022-07-29T18:02:49;4.72;;;1.42;;
22415;SDS011;12204;50.600;4.608;2022-07-29T18:07:54;4.97;;;1.50;;
22415;SDS011;12204;50.600;4.608;2022-07-29T18:12:58;9.50;;;1.90;;
22415;SDS011;12204;50.600;4.608;2022-07-29T18:18:03;12.05;;;2.88;;
22415;SDS011;12204;50.600;4.608;2022-07-29T18:23:08;9.63;;;2.55;;
22415;SDS011;12204;50.600;4.608;2022-07-29T18:28:12;8.75;;;2.90;;
22415;SDS011;12204;50.600;4.608;2022-07-29T18:33:17;11.82;;;2.97;;
22415;SDS011;12204;50.600;4.608;2022-07-29T18:38:24;8.23;;;2.58;;
22415;SDS011;12204;50.600;4.608;2022-07-29T18:43:28;8.55;;;2.20;;
22415;SDS011;12204;50.600;4.608;2022-07-29T18:48:32;9.95;;;2.60;;
22415;SDS011;12204;50.600;4.608;2022-07-29T18:53:37;8.68;;;2.60;;
22415;SDS011;12204;50.600;4.608;2022-07-29T18:58:40;9.13;;;2.30;;
22415;SDS011;12204;50.600;4.608;2022-07-29T19:03:44;7.65;;;2.17;;
22415;SDS011;12204;50.600;4.608;2022-07-29T19:08:49;8.00;;;2.38;;
22415;SDS011;12204;50.600;4.608;2022-07-29T19:13:53;6.03;;;2.10;;
22415;SDS011;12204;50.600;4.608;2022-07-29T19:18:59;5.03;;;1.80;;
22415;SDS011;12204;50.600;4.608;2022-07-29T19:24:04;6.63;;;2.00;;
22415;SDS011;12204;50.600;4.608;2022-07-29T19:29:15;10.60;;;2.03;;
22415;SDS011;12204;50.600;4.608;2022-07-29T19:34:19;7.65;;;1.90;;
22415;SDS011;12204;50.600;4.608;2022-07-29T19:39:24;6.32;;;1.75;;
22415;SDS011;12204;50.600;4.608;2022-07-29T19:44:35;6.00;;;1.65;;
22415;SDS011;12204;50.600;4.608;2022-07-29T19:49:39;7.00;;;1.73;;
22415;SDS011;12204;50.600;4.608;2022-07-29T19:54:44;8.13;;;1.67;;
22415;SDS011;12204;50.600;4.608;2022-07-29T19:59:48;7.30;;;1.60;;
22415;SDS011;12204;50.600;4.608;2022-07-29T20:04:51;5.80;;;1.80;;
22415;SDS011;12204;50.600;4.608;2022-07-29T20:09:57;7.47;;;1.70;;
22415;SDS011;12204;50.600;4.608;2022-07-29T20:15:01;6.15;;;1.50;;
22415;SDS011;12204;50.600;4.608;2022-07-29T20:20:06;6.03;;;1.50;;
22415;SDS011;12204;50.600;4.608;2022-07-29T20:25:12;4.35;;;1.33;;
22415;SDS011;12204;50.600;4.608;2022-07-29T20:30:16;4.05;;;1.35;;
22415;SDS011;12204;50.600;4.608;2022-07-29T20:35:21;6.63;;;1.55;;
22415;SDS011;12204;50.600;4.608;2022-07-29T20:40:26;8.45;;;1.40;;
22415;SDS011;12204;50.600;4.608;2022-07-29T20:45:31;4.53;;;1.50;;
22415;SDS011;12204;50.600;4.608;2022-07-29T20:50:35;4.35;;;1.40;;
22415;SDS011;12204;50.600;4.608;2022-07-29T20:55:40;6.20;;;1.45;;
22415;SDS011;12204;50.600;4.608;2022-07-29T21:00:44;4.10;;;1.20;;
22415;SDS011;12204;50.600;4.608;2022-07-29T21:05:48;4.13;;;1.30;;
22415;SDS011;12204;50.600;4.608;2022-07-29T21:10:53;6.05;;;1.27;;
22415;SDS011;12204;50.600;4.608;2022-07-29T21:20:13;4.60;;;1.42;;
22415;SDS011;12204;50.600;4.608;2022-07-29T21:25:18;7.30;;;1.55;;
22415;SDS011;12204;50.600;4.608;2022-07-29T21:30:22;4.72;;;1.40;;
22415;SDS011;12204;50.600;4.608;2022-07-29T21:35:27;3.92;;;1.35;;
22415;SDS011;12204;50.600;4.608;2022-07-29T21:40:51;3.58;;;1.25;;
22415;SDS011;12204;50.600;4.608;2022-07-29T21:45:56;3.85;;;1.30;;
22415;SDS011;12204;50.600;4.608;2022-07-29T21:51:03;8.70;;;1.40;;
22415;SDS011;12204;50.600;4.608;2022-07-29T21:56:07;10.27;;;1.50;;
22415;SDS011;12204;50.600;4.608;2022-07-29T22:01:15;13.88;;;1.70;;
22415;SDS011;12204;50.600;4.608;2022-07-29T22:06:21;10.60;;;1.55;;
22415;SDS011;12204;50.600;4.608;2022-07-29T22:11:24;7.82;;;1.55;;
22415;SDS011;12204;50.600;4.608;2022-07-29T22:16:28;7.13;;;1.50;;
22415;SDS011;12204;50.600;4.608;2022-07-29T22:21:33;10.02;;;1.60;;
22415;SDS011;12204;50.600;4.608;2022-07-29T22:26:37;9.25;;;1.60;;
22415;SDS011;12204;50.600;4.608;2022-07-29T22:31:40;6.93;;;1.70;;
22415;SDS011;12204;50.600;4.608;2022-07-29T22:36:46;8.15;;;1.90;;
22415;SDS011;12204;50.600;4.608;2022-07-29T22:41:49;6.38;;;1.80;;
22415;SDS011;12204;50.600;4.608;2022-07-29T22:46:53;7.93;;;1.70;;
22415;SDS011;12204;50.600;4.608;2022-07-29T22:51:58;5.55;;;1.80;;
22415;SDS011;12204;50.600;4.608;2022-07-29T22:57:02;5.35;;;1.90;;
22415;SDS011;12204;50.600;4.608;2022-07-29T23:02:06;5.40;;;1.98;;
22415;SDS011;12204;50.600;4.608;2022-07-29T23:07:11;6.53;;;1.98;;
22415;SDS011;12204;50.600;4.608;2022-07-29T23:12:15;5.97;;;2.00;;
22415;SDS011;12204;50.600;4.608;2022-07-29T23:17:19;8.35;;;2.20;;
22415;SDS011;12204;50.600;4.608;2022-07-29T23:22:24;5.70;;;1.75;;
22415;SDS011;12204;50.600;4.608;2022-07-29T23:27:27;5.53;;;2.05;;
22415;SDS011;12204;50.600;4.608;2022-07-29T23:32:31;7.00;;;2.15;;
22415;SDS011;12204;50.600;4.608;2022-07-29T23:37:36;7.93;;;2.40;;
22415;SDS011;12204;50.600;4.608;2022-07-29T23:42:40;7.07;;;2.58;;
22415;SDS011;12204;50.600;4.608;2022-07-29T23:47:44;6.68;;;2.25;;
22415;SDS011;12204;50.600;4.608;2022-07-29T23:52:49;7.13;;;2.40;;
22415;SDS011;12204;50.600;4.608;2022-07-29T23:57:53;5.93;;;2.20;;
